Time;durP1;ratioP1;P1;durP2;ratioP2;P2;SDS_P1;SDS_P2;PMS_P1;PMS_P2;Temp;Humidity;BMP_temperature;BMP_pressure;BME280_temperature;BME280_humidity;BME280_pressure;Samples;Min_cycle;Max_cycle;Signal;HPM_P1;HPM_P2
2023/12/27 00:00:29;;;;;;;11.18;4.38;;;6.90;99.90;;;;;;5087225;28;20052;-67
2023/12/27 00:02:56;;;;;;;9.23;4.68;;;6.90;99.90;;;;;;5091126;28;20020;-66
2023/12/27 00:05:21;;;;;;;12.30;4.50;;;6.90;99.90;;;;;;5072596;28;20043;-70
2023/12/27 00:07:47;;;;;;;13.35;4.45;;;6.90;99.90;;;;;;5090092;28;20029;-67
2023/12/27 00:10:13;;;;;;;8.57;3.90;;;6.90;99.90;;;;;;5080897;28;20035;-67
2023/12/27 00:12:38;;;;;;;10.63;4.53;;;6.90;99.90;;;;;;5089932;28;20170;-67
2023/12/27 00:15:04;;;;;;;9.15;3.70;;;7.00;99.90;;;;;;5083488;28;20032;-66
2023/12/27 00:17:30;;;;;;;8.48;4.05;;;7.00;99.90;;;;;;5085997;28;20050;-67
2023/12/27 00:19:56;;;;;;;10.95;3.92;;;7.00;99.90;;;;;;5091601;28;20024;-66
2023/12/27 00:22:21;;;;;;;12.27;4.40;;;7.00;99.90;;;;;;5071400;28;20032;-70
2023/12/27 00:24:47;;;;;;;14.52;4.03;;;7.00;99.90;;;;;;5090348;28;20126;-68
2023/12/27 00:27:13;;;;;;;10.82;4.18;;;7.00;99.90;;;;;;5090177;28;20039;-67
2023/12/27 00:29:38;;;;;;;12.30;4.50;;;7.00;99.90;;;;;;5090493;28;20024;-66
2023/12/27 00:32:08;;;;;;;10.50;4.57;;;7.00;99.90;;;;;;5067861;28;20066;-66
2023/12/27 00:34:34;;;;;;;12.77;4.43;;;7.10;99.90;;;;;;5089080;28;20107;-67
2023/12/27 00:37:00;;;;;;;10.52;3.78;;;7.10;99.90;;;;;;5071388;28;20107;-67
2023/12/27 00:39:26;;;;;;;11.73;4.03;;;7.10;99.90;;;;;;5086392;28;20132;-66
2023/12/27 00:41:52;;;;;;;9.20;4.10;;;7.10;99.90;;;;;;5084669;28;20482;-68
2023/12/27 00:44:18;;;;;;;11.52;3.97;;;7.00;99.90;;;;;;5070449;28;20031;-66
2023/12/27 00:46:44;;;;;;;12.93;4.00;;;7.00;99.90;;;;;;5072896;28;20033;-66
2023/12/27 00:49:10;;;;;;;10.35;3.70;;;6.90;99.90;;;;;;5081190;28;20389;-67
2023/12/27 00:51:35;;;;;;;7.20;3.63;;;6.90;99.90;;;;;;5084526;28;20036;-67
2023/12/27 00:54:01;;;;;;;8.48;2.92;;;6.90;99.90;;;;;;5082390;28;20032;-66
2023/12/27 00:56:27;;;;;;;6.57;3.20;;;6.90;99.90;;;;;;5075547;28;20028;-68
2023/12/27 00:58:52;;;;;;;12.25;3.65;;;6.80;99.90;;;;;;5089933;28;20419;-66
2023/12/27 01:01:18;;;;;;;8.07;3.47;;;6.80;99.90;;;;;;5088956;28;20052;-66
2023/12/27 01:03:43;;;;;;;8.60;3.42;;;6.80;99.90;;;;;;5087404;28;20088;-66
2023/12/27 01:06:10;;;;;;;11.63;2.92;;;6.80;99.90;;;;;;5088902;28;20027;-67
2023/12/27 01:08:36;;;;;;;8.45;3.40;;;6.80;99.90;;;;;;5083439;28;20036;-66
2023/12/27 01:11:02;;;;;;;8.48;3.25;;;6.80;99.90;;;;;;5088992;28;20470;-66
2023/12/27 01:13:28;;;;;;;7.80;3.53;;;6.80;99.90;;;;;;5088560;28;20028;-67
2023/12/27 01:15:55;;;;;;;8.02;3.35;;;6.80;99.90;;;;;;5071374;28;20495;-65
2023/12/27 01:18:21;;;;;;;7.47;3.40;;;6.80;99.90;;;;;;5084043;28;20428;-68
2023/12/27 01:20:47;;;;;;;6.57;3.00;;;6.80;99.90;;;;;;5054125;28;20024;-67
2023/12/27 01:23:15;;;;;;;7.53;3.13;;;6.80;99.90;;;;;;5062233;28;20071;-68
2023/12/27 01:25:40;;;;;;;8.68;2.95;;;6.80;99.90;;;;;;5088904;28;20466;-67
2023/12/27 01:28:06;;;;;;;7.78;2.83;;;6.80;99.90;;;;;;5088533;28;20039;-67
2023/12/27 01:30:32;;;;;;;8.15;3.20;;;6.80;99.90;;;;;;5061545;28;20048;-67
2023/12/27 01:32:58;;;;;;;6.70;3.17;;;6.80;99.90;;;;;;5088867;28;20035;-65
2023/12/27 01:35:24;;;;;;;7.95;2.97;;;6.70;99.90;;;;;;5088168;28;20063;-69
2023/12/27 01:37:50;;;;;;;6.10;2.70;;;6.70;99.90;;;;;;5088133;28;20066;-66
2023/12/27 01:40:16;;;;;;;9.48;2.85;;;6.60;99.90;;;;;;5088354;28;20467;-67
2023/12/27 01:42:41;;;;;;;6.72;2.90;;;6.70;99.90;;;;;;5088242;28;20024;-66
2023/12/27 01:45:07;;;;;;;5.60;2.80;;;6.70;99.90;;;;;;5086546;28;20040;-67
2023/12/27 01:47:34;;;;;;;9.00;3.05;;;6.70;99.90;;;;;;5087611;28;20390;-67
2023/12/27 01:50:01;;;;;;;9.50;3.13;;;6.70;99.90;;;;;;5088452;28;20458;-67
2023/12/27 01:52:26;;;;;;;6.07;2.78;;;6.70;99.90;;;;;;5087248;28;20601;-69
2023/12/27 01:54:53;;;;;;;5.60;3.03;;;6.70;99.90;;;;;;5070692;28;20063;-66
2023/12/27 01:57:18;;;;;;;6.00;2.85;;;6.70;99.90;;;;;;5086217;28;20109;-66
2023/12/27 01:59:45;;;;;;;7.25;3.53;;;6.70;99.90;;;;;;5087441;28;20655;-65
2023/12/27 02:02:13;;;;;;;10.63;3.78;;;6.70;99.90;;;;;;5079745;28;20744;-66
2023/12/27 02:04:38;;;;;;;6.65;3.13;;;6.70;99.90;;;;;;5085265;28;20414;-67
2023/12/27 02:07:05;;;;;;;7.63;3.40;;;6.70;99.90;;;;;;5083058;28;20150;-66
2023/12/27 02:09:31;;;;;;;8.65;3.25;;;6.70;99.90;;;;;;5058643;28;20028;-67
2023/12/27 02:11:57;;;;;;;7.10;3.30;;;6.70;99.90;;;;;;5086666;28;20055;-67
2023/12/27 02:14:23;;;;;;;7.78;3.70;;;6.70;99.90;;;;;;5084628;28;20025;-67
2023/12/27 02:16:49;;;;;;;8.45;3.53;;;6.70;99.90;;;;;;5068095;28;20040;-66
2023/12/27 02:19:20;;;;;;;8.27;3.60;;;6.70;99.90;;;;;;5077125;28;20161;-66
2023/12/27 02:21:48;;;;;;;7.05;3.47;;;6.70;99.90;;;;;;5088436;28;20036;-66
2023/12/27 02:24:18;;;;;;;6.80;3.38;;;6.70;99.90;;;;;;5087189;28;20109;-66
2023/12/27 02:26:43;;;;;;;8.80;4.40;;;6.80;99.90;;;;;;5084759;28;20111;-67
2023/12/27 02:29:09;;;;;;;7.72;4.00;;;6.80;99.90;;;;;;5065615;28;20453;-66
2023/12/27 02:31:35;;;;;;;7.95;3.90;;;6.80;99.90;;;;;;5069548;28;20048;-66
2023/12/27 02:34:00;;;;;;;7.22;3.63;;;6.80;99.90;;;;;;5070151;28;20036;-66
2023/12/27 02:36:26;;;;;;;42.58;4.68;;;6.90;99.90;;;;;;5087828;28;20032;-70
2023/12/27 02:38:52;;;;;;;10.77;4.57;;;6.80;99.90;;;;;;5085476;28;20046;-66
2023/12/27 02:41:17;;;;;;;8.77;4.07;;;6.80;99.90;;;;;;5089018;28;20458;-66
2023/12/27 02:43:43;;;;;;;10.18;4.03;;;6.70;99.90;;;;;;5087805;28;20028;-68
2023/12/27 02:46:08;;;;;;;9.65;4.32;;;6.80;99.90;;;;;;5087937;28;20521;-65
2023/12/27 02:48:34;;;;;;;8.50;4.30;;;6.70;99.90;;;;;;5085913;28;20532;-66
2023/12/27 02:51:00;;;;;;;8.43;3.90;;;6.70;99.90;;;;;;5087965;28;20039;-66
2023/12/27 02:53:25;;;;;;;8.77;4.03;;;6.70;99.90;;;;;;5088374;28;20031;-66
2023/12/27 02:55:51;;;;;;;11.32;4.22;;;6.70;99.90;;;;;;5082857;28;20055;-66
2023/12/27 02:58:17;;;;;;;9.48;4.00;;;6.70;99.90;;;;;;5087110;28;20470;-67
2023/12/27 03:00:45;;;;;;;14.18;4.68;;;6.70;99.90;;;;;;5076180;28;20128;-67
2023/12/27 03:03:12;;;;;;;11.10;4.43;;;6.70;99.90;;;;;;5058514;28;20774;-65
2023/12/27 03:05:37;;;;;;;10.15;4.53;;;6.70;99.90;;;;;;5049422;28;20031;-66
2023/12/27 03:08:04;;;;;;;10.40;4.15;;;6.70;99.90;;;;;;5063135;28;20033;-66
2023/12/27 03:10:29;;;;;;;14.55;4.35;;;6.70;99.90;;;;;;5067820;28;20116;-70
2023/12/27 03:12:55;;;;;;;8.45;4.32;;;6.70;99.90;;;;;;5050639;28;20545;-66
2023/12/27 03:15:20;;;;;;;11.73;4.35;;;6.70;99.90;;;;;;5087648;28;20374;-67
2023/12/27 03:17:46;;;;;;;9.15;3.75;;;6.70;99.90;;;;;;5074187;28;20393;-66
2023/12/27 03:20:12;;;;;;;8.32;3.70;;;6.70;99.90;;;;;;5068095;28;20032;-67
2023/12/27 03:22:38;;;;;;;168.68;8.55;;;6.70;99.90;;;;;;5067449;28;20462;-66
2023/12/27 03:25:04;;;;;;;9.25;4.65;;;6.70;99.90;;;;;;5068380;28;20044;-67
2023/12/27 03:27:31;;;;;;;109.90;6.82;;;6.60;99.90;;;;;;5067285;28;20020;-69
2023/12/27 03:29:56;;;;;;;11.80;5.00;;;6.60;99.90;;;;;;5067660;28;20059;-66
2023/12/27 03:32:24;;;;;;;12.13;4.93;;;6.60;99.90;;;;;;5065078;28;20532;-66
2023/12/27 03:34:49;;;;;;;8.15;4.25;;;6.60;99.90;;;;;;5059957;28;20223;-67
2023/12/27 03:37:15;;;;;;;11.23;4.80;;;6.60;99.90;;;;;;5081939;28;20423;-66
2023/12/27 03:39:43;;;;;;;12.13;5.40;;;6.60;99.90;;;;;;5070992;28;20040;-66
2023/12/27 03:42:12;;;;;;;12.73;5.35;;;6.60;99.90;;;;;;5071808;28;20036;-66
2023/12/27 03:44:38;;;;;;;10.17;4.33;;;6.60;99.90;;;;;;5073372;28;20075;-67
2023/12/27 03:47:04;;;;;;;9.30;4.70;;;6.60;99.90;;;;;;5062291;28;20032;-65
2023/12/27 03:49:30;;;;;;;10.07;4.43;;;6.60;99.90;;;;;;5054271;28;20036;-67
2023/12/27 03:51:55;;;;;;;9.98;4.47;;;6.60;99.90;;;;;;5070580;28;20074;-66
2023/12/27 03:54:21;;;;;;;9.75;4.60;;;6.70;99.90;;;;;;5071851;28;20569;-67
2023/12/27 03:56:47;;;;;;;8.77;4.38;;;6.70;99.90;;;;;;5087355;28;20036;-68
2023/12/27 03:59:12;;;;;;;8.82;4.45;;;6.70;99.90;;;;;;5072405;28;20390;-67
2023/12/27 04:01:38;;;;;;;9.55;4.63;;;6.70;99.90;;;;;;5077503;28;20075;-66
2023/12/27 04:04:04;;;;;;;7.22;3.88;;;6.70;99.90;;;;;;5071479;28;20044;-67
2023/12/27 04:06:29;;;;;;;8.30;3.42;;;6.70;99.90;;;;;;5087046;28;20054;-67
2023/12/27 04:08:55;;;;;;;7.63;3.70;;;6.70;99.90;;;;;;5086468;28;20096;-66
2023/12/27 04:11:20;;;;;;;8.38;3.50;;;6.60;99.90;;;;;;5090434;28;20043;-67
2023/12/27 04:13:46;;;;;;;11.15;3.83;;;6.60;99.90;;;;;;5089048;28;20063;-67
2023/12/27 04:16:12;;;;;;;8.85;3.60;;;6.60;99.90;;;;;;5094564;28;20461;-67
2023/12/27 04:18:37;;;;;;;8.65;3.88;;;6.70;99.90;;;;;;5089270;28;20036;-66
2023/12/27 04:21:03;;;;;;;11.43;4.10;;;6.70;99.90;;;;;;5090899;28;20036;-67
2023/12/27 04:23:29;;;;;;;10.43;4.30;;;6.70;99.90;;;;;;5090038;28;20037;-66
2023/12/27 04:25:55;;;;;;;9.02;3.78;;;6.70;99.90;;;;;;5071070;28;20020;-66
2023/12/27 04:28:21;;;;;;;10.38;4.07;;;6.70;99.90;;;;;;5087890;28;20462;-66
2023/12/27 04:30:47;;;;;;;9.05;3.75;;;6.70;99.90;;;;;;5089607;28;20101;-66
2023/12/27 04:33:13;;;;;;;8.40;3.97;;;6.70;99.90;;;;;;5090300;28;20461;-67
2023/12/27 04:35:39;;;;;;;256.70;10.80;;;6.80;99.90;;;;;;5068575;28;20052;-66
2023/12/27 04:38:05;;;;;;;38.88;5.40;;;6.80;99.90;;;;;;5053166;28;20127;-67
2023/12/27 04:40:30;;;;;;;20.52;5.93;;;6.60;99.90;;;;;;5073495;28;20154;-66
2023/12/27 04:42:57;;;;;;;11.88;5.32;;;6.60;99.90;;;;;;5090029;28;20020;-68
2023/12/27 04:45:22;;;;;;;9.38;4.38;;;6.50;99.90;;;;;;5090102;28;20032;-69
2023/12/27 04:47:48;;;;;;;8.68;4.55;;;6.50;99.90;;;;;;5089916;28;20024;-66
2023/12/27 04:50:14;;;;;;;10.68;4.22;;;6.50;99.90;;;;;;5090731;28;20020;-66
2023/12/27 04:52:39;;;;;;;11.43;5.00;;;6.50;99.90;;;;;;5070938;28;20115;-66
2023/12/27 04:55:05;;;;;;;28.17;6.93;;;6.60;99.90;;;;;;5082019;28;20070;-70
2023/12/27 04:57:31;;;;;;;19.92;6.43;;;6.60;99.90;;;;;;5089633;28;20042;-67
2023/12/27 04:59:56;;;;;;;15.65;6.35;;;6.50;99.90;;;;;;5071152;28;20048;-70
2023/12/27 05:02:22;;;;;;;15.85;6.85;;;6.50;99.90;;;;;;5077834;28;20037;-69
2023/12/27 05:04:47;;;;;;;19.95;7.85;;;6.50;99.90;;;;;;5075841;28;20102;-67
2023/12/27 05:07:14;;;;;;;25.05;14.82;;;6.50;99.90;;;;;;5089467;28;20081;-66
2023/12/27 05:09:40;;;;;;;14.52;6.38;;;6.60;99.90;;;;;;5069062;28;20024;-69
2023/12/27 05:12:06;;;;;;;12.07;5.05;;;6.50;99.90;;;;;;5081629;28;20043;-66
2023/12/27 05:14:31;;;;;;;9.93;4.95;;;6.30;99.90;;;;;;5090589;28;20020;-69
2023/12/27 05:16:57;;;;;;;7.68;4.07;;;6.20;99.90;;;;;;5065789;28;20086;-68
2023/12/27 05:19:23;;;;;;;8.32;4.45;;;6.20;99.90;;;;;;5094076;28;20040;-69
2023/12/27 05:21:48;;;;;;;12.13;4.70;;;6.20;99.90;;;;;;5087243;28;20036;-69
2023/12/27 05:24:14;;;;;;;8.43;4.50;;;6.20;99.90;;;;;;5092962;28;20032;-68
2023/12/27 05:26:39;;;;;;;25.80;4.82;;;6.20;99.90;;;;;;5069009;28;20032;-71
2023/12/27 05:29:05;;;;;;;38.72;5.68;;;6.20;99.90;;;;;;5090186;28;20111;-67
2023/12/27 05:31:31;;;;;;;146.02;7.30;;;6.00;99.90;;;;;;5110139;28;20474;-68
2023/12/27 05:33:56;;;;;;;24.13;4.72;;;5.90;99.90;;;;;;5104867;28;20646;-69
2023/12/27 05:36:22;;;;;;;11.80;4.82;;;5.90;99.90;;;;;;5090294;28;20145;-69
2023/12/27 05:38:48;;;;;;;11.38;5.32;;;5.90;99.90;;;;;;5067520;28;20032;-69
2023/12/27 05:41:14;;;;;;;13.93;5.25;;;5.80;99.90;;;;;;5086084;28;20019;-69
2023/12/27 05:43:39;;;;;;;11.52;5.05;;;5.80;99.90;;;;;;5092339;28;20107;-71
2023/12/27 05:46:05;;;;;;;13.77;5.82;;;5.80;99.90;;;;;;5057092;28;20093;-67
2023/12/27 05:48:31;;;;;;;16.85;7.95;;;5.80;99.90;;;;;;5079933;28;20139;-66
2023/12/27 05:50:56;;;;;;;63.17;8.52;;;5.70;99.90;;;;;;5076666;28;20063;-67
2023/12/27 05:53:22;;;;;;;37.10;6.07;;;5.70;99.90;;;;;;5094085;28;20134;-66
2023/12/27 05:55:48;;;;;;;53.22;5.82;;;5.70;99.90;;;;;;5077110;28;20032;-66
2023/12/27 05:58:14;;;;;;;20.10;4.68;;;5.70;99.90;;;;;;5099436;28;20023;-66
2023/12/27 06:00:39;;;;;;;520.70;13.73;;;5.60;99.90;;;;;;5082003;28;20523;-69
2023/12/27 06:03:05;;;;;;;285.63;10.32;;;5.60;99.90;;;;;;5079436;28;20504;-65
2023/12/27 06:05:31;;;;;;;114.95;5.75;;;5.60;99.90;;;;;;5086608;28;20032;-66
2023/12/27 06:07:56;;;;;;;12.90;4.10;;;5.50;99.90;;;;;;5078867;28;20504;-68
2023/12/27 06:10:22;;;;;;;9.32;4.63;;;5.50;99.90;;;;;;5066664;28;20039;-66
2023/12/27 06:12:48;;;;;;;11.20;4.82;;;5.50;99.90;;;;;;5088263;28;20031;-65
2023/12/27 06:15:13;;;;;;;14.32;6.53;;;5.50;99.90;;;;;;5069185;28;20111;-66
2023/12/27 06:17:39;;;;;;;14.77;7.10;;;5.60;99.90;;;;;;5078522;28;20382;-69
2023/12/27 06:20:08;;;;;;;19.83;8.25;;;5.70;99.90;;;;;;5083326;28;20396;-68
2023/12/27 06:22:33;;;;;;;17.00;7.95;;;5.70;99.90;;;;;;5069560;28;20054;-68
2023/12/27 06:24:59;;;;;;;20.40;9.10;;;5.70;99.90;;;;;;5082165;28;20638;-68
2023/12/27 06:27:25;;;;;;;21.27;9.82;;;5.70;99.90;;;;;;5087568;28;20501;-69
2023/12/27 06:29:50;;;;;;;21.67;9.52;;;5.70;99.90;;;;;;5078607;28;20028;-68
2023/12/27 06:32:16;;;;;;;26.10;10.32;;;5.70;99.90;;;;;;5075394;28;20040;-68
2023/12/27 06:34:41;;;;;;;24.63;10.82;;;5.80;99.90;;;;;;5083007;28;20530;-71
2023/12/27 06:37:07;;;;;;;24.83;10.95;;;5.70;99.90;;;;;;5085057;28;20028;-70
2023/12/27 06:39:33;;;;;;;27.13;10.63;;;5.70;99.90;;;;;;5081376;28;20533;-69
2023/12/27 06:41:58;;;;;;;22.33;10.05;;;5.70;99.90;;;;;;5079498;28;20032;-67
2023/12/27 06:44:24;;;;;;;33.40;14.10;;;5.70;99.90;;;;;;5082592;28;20070;-68
2023/12/27 06:46:50;;;;;;;29.63;11.57;;;5.70;99.90;;;;;;5090420;28;20515;-69
2023/12/27 06:49:15;;;;;;;29.92;12.65;;;5.70;99.90;;;;;;5086252;28;20024;-70
2023/12/27 06:51:41;;;;;;;26.73;11.63;;;5.60;99.90;;;;;;5065953;28;20032;-71
2023/12/27 06:54:07;;;;;;;25.92;10.50;;;5.60;99.90;;;;;;5085989;28;20032;-69
2023/12/27 06:56:32;;;;;;;27.08;11.82;;;5.60;99.90;;;;;;5087898;28;20482;-69
2023/12/27 06:58:58;;;;;;;29.17;11.57;;;5.60;99.90;;;;;;5084466;28;20039;-70
2023/12/27 07:01:24;;;;;;;44.25;16.40;;;5.60;99.90;;;;;;5078261;28;20052;-69
2023/12/27 07:03:50;;;;;;;26.95;11.40;;;5.60;99.90;;;;;;5082332;28;20032;-69
2023/12/27 07:06:17;;;;;;;25.90;11.13;;;5.50;99.90;;;;;;5080970;28;20746;-67
2023/12/27 07:08:43;;;;;;;25.35;10.77;;;5.60;99.90;;;;;;5073112;28;20024;-71
2023/12/27 07:11:15;;;;;;;32.20;11.68;;;5.60;99.90;;;;;;5076856;28;20085;-69
2023/12/27 07:13:42;;;;;;;29.42;11.63;;;5.60;99.90;;;;;;5088302;28;20028;-68
2023/12/27 07:16:07;;;;;;;26.60;12.02;;;5.70;99.90;;;;;;5086196;28;20032;-69
2023/12/27 07:18:33;;;;;;;30.85;12.20;;;5.70;99.90;;;;;;5092021;28;20386;-69
2023/12/27 07:20:58;;;;;;;32.20;12.88;;;5.70;99.90;;;;;;5090266;28;20107;-69
2023/12/27 07:23:24;;;;;;;29.85;11.20;;;5.70;99.90;;;;;;5071973;28;20437;-67
2023/12/27 07:25:50;;;;;;;21.38;8.65;;;5.70;99.90;;;;;;5089853;28;20096;-69
2023/12/27 07:28:15;;;;;;;15.70;6.85;;;5.70;99.90;;;;;;5092313;28;20028;-67
2023/12/27 07:30:42;;;;;;;23.63;9.75;;;5.60;99.90;;;;;;5075699;28;20124;-69
2023/12/27 07:33:07;;;;;;;24.33;10.35;;;5.40;99.90;;;;;;5087049;28;20032;-69
2023/12/27 07:35:33;;;;;;;27.17;11.20;;;5.50;99.90;;;;;;5088690;28;20032;-69
2023/12/27 07:38:00;;;;;;;28.67;11.45;;;5.50;99.90;;;;;;5084289;28;20656;-68
2023/12/27 07:40:27;;;;;;;27.05;11.85;;;5.60;99.90;;;;;;5086491;28;20107;-67
2023/12/27 07:42:53;;;;;;;24.35;10.85;;;5.70;99.90;;;;;;5072692;28;20036;-68
2023/12/27 07:45:22;;;;;;;24.60;11.32;;;5.70;99.90;;;;;;5080045;28;20039;-68
2023/12/27 07:47:48;;;;;;;26.08;10.50;;;5.70;99.90;;;;;;5084639;28;20615;-72
2023/12/27 07:50:13;;;;;;;24.60;10.00;;;5.70;99.90;;;;;;5089529;28;20109;-69
2023/12/27 07:52:39;;;;;;;26.08;10.55;;;5.70;99.90;;;;;;5088008;28;20039;-68
2023/12/27 07:55:05;;;;;;;29.92;11.52;;;5.70;99.90;;;;;;5085494;28;20103;-68
2023/12/27 07:57:30;;;;;;;30.83;12.50;;;5.70;99.90;;;;;;5089467;28;20103;-68
2023/12/27 07:59:57;;;;;;;39.25;14.55;;;5.70;99.90;;;;;;5093316;28;21799;-69
2023/12/27 08:02:24;;;;;;;33.28;14.23;;;5.70;99.90;;;;;;5074606;28;20474;-69
2023/12/27 08:04:49;;;;;;;30.67;11.98;;;5.70;99.90;;;;;;5055216;28;20031;-71
2023/12/27 08:07:15;;;;;;;40.08;13.27;;;5.70;99.90;;;;;;5068964;28;20023;-67
2023/12/27 08:09:41;;;;;;;22.80;9.75;;;5.80;99.90;;;;;;5090447;28;20033;-69
2023/12/27 08:12:06;;;;;;;22.35;10.00;;;5.80;99.90;;;;;;5074961;28;20031;-69
2023/12/27 08:14:32;;;;;;;20.42;9.65;;;5.80;99.90;;;;;;5072264;28;20028;-69
2023/12/27 08:16:58;;;;;;;22.15;9.25;;;5.80;99.90;;;;;;5071595;28;20039;-69
2023/12/27 08:19:24;;;;;;;22.02;9.35;;;5.80;99.90;;;;;;5089731;28;20031;-69
2023/12/27 08:21:49;;;;;;;22.77;9.90;;;5.80;99.90;;;;;;5106987;28;20046;-72
2023/12/27 08:24:15;;;;;;;26.38;9.23;;;5.90;99.90;;;;;;5087079;28;20039;-69
2023/12/27 08:26:41;;;;;;;22.55;10.18;;;5.90;99.90;;;;;;5092952;28;20080;-68
2023/12/27 08:29:07;;;;;;;31.33;10.23;;;5.90;99.90;;;;;;5087542;28;20054;-69
2023/12/27 08:31:33;;;;;;;23.67;9.27;;;5.90;99.90;;;;;;5091018;28;20122;-69
2023/12/27 08:34:02;;;;;;;22.85;8.35;;;5.90;99.90;;;;;;5092855;28;20709;-69
2023/12/27 08:36:29;;;;;;;20.20;7.78;;;6.00;99.90;;;;;;5073576;28;20028;-69
2023/12/27 08:38:55;;;;;;;22.77;7.75;;;6.00;99.90;;;;;;5069720;28;20107;-69
2023/12/27 08:41:24;;;;;;;17.42;7.53;;;6.00;99.90;;;;;;5087542;28;20114;-68
2023/12/27 08:43:51;;;;;;;22.55;7.50;;;6.10;99.90;;;;;;5074075;28;20081;-72
2023/12/27 08:46:17;;;;;;;21.45;9.40;;;6.10;99.90;;;;;;5086927;28;20474;-70
2023/12/27 08:48:42;;;;;;;19.05;8.85;;;6.20;99.90;;;;;;5084252;28;20130;-72
2023/12/27 08:51:09;;;;;;;16.52;7.70;;;6.20;99.90;;;;;;5079047;28;20036;-69
2023/12/27 08:53:35;;;;;;;18.45;7.20;;;6.30;99.90;;;;;;5100829;28;20050;-67
2023/12/27 08:56:01;;;;;;;22.65;7.45;;;6.40;99.90;;;;;;5073141;28;20086;-68
2023/12/27 08:58:26;;;;;;;22.15;8.98;;;6.40;99.90;;;;;;5073068;28;20027;-67
2023/12/27 09:00:53;;;;;;;20.83;7.00;;;6.40;99.90;;;;;;5062230;28;20088;-70
2023/12/27 09:03:18;;;;;;;21.65;8.75;;;6.50;99.90;;;;;;5081319;28;20478;-66
2023/12/27 09:05:46;;;;;;;19.27;8.68;;;6.60;99.90;;;;;;5061281;28;20028;-66
2023/12/27 09:08:12;;;;;;;23.85;9.70;;;6.70;99.90;;;;;;5086480;28;20675;-70
2023/12/27 09:10:38;;;;;;;18.13;7.75;;;6.70;99.90;;;;;;5087234;28;20027;-68
2023/12/27 09:13:03;;;;;;;21.83;7.90;;;6.80;99.90;;;;;;5086935;28;20466;-68
2023/12/27 09:15:29;;;;;;;19.42;6.75;;;6.80;99.90;;;;;;5089031;28;20411;-67
2023/12/27 09:17:55;;;;;;;23.38;10.85;;;6.90;99.90;;;;;;5073479;28;20039;-66
2023/12/27 09:20:20;;;;;;;30.48;10.50;;;6.90;99.90;;;;;;5067213;28;20059;-68
2023/12/27 09:22:46;;;;;;;36.70;15.27;;;7.00;99.90;;;;;;5078727;28;20048;-68
2023/12/27 09:25:12;;;;;;;15.38;8.25;;;7.10;99.90;;;;;;5069240;28;20095;-69
2023/12/27 09:27:38;;;;;;;12.15;4.95;;;7.10;99.90;;;;;;5072111;28;20549;-67
2023/12/27 09:30:04;;;;;;;12.15;4.90;;;7.10;99.90;;;;;;5082068;28;20095;-67
2023/12/27 09:32:30;;;;;;;12.60;5.60;;;7.10;99.90;;;;;;5086648;28;20028;-68
2023/12/27 09:34:56;;;;;;;19.77;8.23;;;7.10;99.90;;;;;;5085631;28;20458;-68
2023/12/27 09:37:21;;;;;;;19.65;9.48;;;7.10;99.90;;;;;;5088291;28;20028;-69
2023/12/27 09:39:47;;;;;;;31.63;12.00;;;7.10;99.90;;;;;;5067999;28;20032;-68
2023/12/27 09:42:13;;;;;;;29.92;13.02;;;7.10;99.90;;;;;;5087985;28;20107;-67
2023/12/27 09:44:42;;;;;;;25.55;13.35;;;7.10;99.90;;;;;;5083094;28;20048;-68
2023/12/27 09:47:10;;;;;;;28.73;13.38;;;7.00;99.90;;;;;;5088634;28;20102;-67
2023/12/27 09:49:36;;;;;;;39.75;17.25;;;7.00;99.90;;;;;;5066582;28;20075;-67
2023/12/27 09:52:02;;;;;;;19.30;8.80;;;7.00;99.90;;;;;;5076155;28;20046;-68
2023/12/27 09:54:28;;;;;;;13.60;5.15;;;7.00;99.90;;;;;;5073015;28;20068;-68
2023/12/27 09:56:54;;;;;;;9.77;4.85;;;7.10;99.90;;;;;;5067418;28;20063;-72
2023/12/27 09:59:27;;;;;;;14.18;5.70;;;7.30;99.90;;;;;;5067632;28;20031;-68
2023/12/27 10:02:00;;;;;;;12.50;6.07;;;7.50;99.90;;;;;;5083605;28;20047;-72
2023/12/27 10:04:30;;;;;;;20.25;7.30;;;7.70;99.90;;;;;;5083146;28;20040;-66
2023/12/27 10:06:58;;;;;;;18.98;9.80;;;7.70;99.90;;;;;;5086380;28;20435;-71
2023/12/27 10:09:24;;;;;;;17.40;6.68;;;7.70;99.90;;;;;;5077417;28;20039;-67
2023/12/27 10:11:49;;;;;;;12.65;5.13;;;7.80;99.90;;;;;;5074451;28;20421;-67
2023/12/27 10:14:17;;;;;;;10.45;4.10;;;8.00;99.90;;;;;;5075612;28;20019;-66
2023/12/27 10:16:42;;;;;;;10.95;3.78;;;8.20;99.90;;;;;;5087854;28;20028;-67
2023/12/27 10:19:41;;;;;;;8.57;3.90;;;8.50;99.90;;;;;;5079167;28;20045;-67
2023/12/27 10:22:08;;;;;;;8.70;3.20;;;8.90;99.90;;;;;;5068770;28;20047;-68
2023/12/27 10:24:34;;;;;;;7.75;3.55;;;9.10;99.90;;;;;;5086392;28;20458;-69
2023/12/27 10:27:01;;;;;;;8.88;3.42;;;9.20;99.90;;;;;;5083719;28;20458;-68
2023/12/27 10:29:28;;;;;;;8.48;3.13;;;9.20;99.90;;;;;;5088140;28;20369;-67
2023/12/27 10:31:54;;;;;;;11.00;2.60;;;9.20;99.90;;;;;;5078952;28;20078;-71
2023/12/27 10:34:21;;;;;;;8.43;3.42;;;9.30;99.90;;;;;;5073608;28;20060;-66
2023/12/27 10:36:49;;;;;;;6.93;2.65;;;9.10;99.90;;;;;;5068829;28;20311;-67
2023/12/27 10:39:17;;;;;;;7.50;2.45;;;9.20;99.90;;;;;;5067934;28;20016;-66
2023/12/27 10:41:43;;;;;;;8.48;2.85;;;9.20;99.90;;;;;;5082380;28;20043;-67
2023/12/27 10:44:09;;;;;;;8.02;2.70;;;9.40;99.90;;;;;;5070716;28;20484;-66
2023/12/27 10:46:37;;;;;;;10.38;2.72;;;9.30;99.90;;;;;;5072445;28;20419;-66
2023/12/27 10:49:04;;;;;;;10.63;3.00;;;9.40;99.90;;;;;;5071799;28;20119;-66
2023/12/27 10:51:30;;;;;;;4.45;2.35;;;9.50;99.90;;;;;;5072763;28;20032;-68
2023/12/27 10:54:01;;;;;;;5.88;2.65;;;9.70;99.90;;;;;;5085602;28;20028;-71
2023/12/27 10:56:28;;;;;;;8.63;2.83;;;9.90;99.90;;;;;;5091865;28;20499;-69
2023/12/27 10:58:55;;;;;;;7.85;2.53;;;9.90;99.90;;;;;;5093037;28;20024;-67
2023/12/27 11:01:21;;;;;;;7.13;2.50;;;9.90;99.90;;;;;;5075186;28;20059;-66
2023/12/27 11:03:47;;;;;;;6.60;2.30;;;9.80;99.90;;;;;;5069667;28;20447;-68
2023/12/27 11:06:16;;;;;;;6.82;2.40;;;9.80;99.90;;;;;;5058533;28;20044;-68
2023/12/27 11:08:45;;;;;;;6.68;2.75;;;9.90;99.90;;;;;;5065858;28;20029;-67
2023/12/27 11:11:15;;;;;;;6.45;2.33;;;10.10;99.90;;;;;;5071476;28;20033;-67
2023/12/27 11:13:42;;;;;;;5.80;2.20;;;10.20;99.90;;;;;;5071205;28;20458;-67
2023/12/27 11:16:09;;;;;;;9.07;2.50;;;10.30;99.90;;;;;;5043195;28;20399;-66
2023/12/27 11:18:35;;;;;;;7.75;2.90;;;10.60;99.90;;;;;;5065986;28;20021;-66
2023/12/27 11:21:01;;;;;;;7.10;2.60;;;10.70;99.90;;;;;;5063503;28;20032;-66
2023/12/27 11:23:27;;;;;;;8.98;2.42;;;10.80;99.90;;;;;;5067697;28;20029;-68
2023/12/27 11:25:56;;;;;;;6.38;2.42;;;10.90;99.90;;;;;;5069767;28;20693;-67
2023/12/27 11:28:23;;;;;;;5.35;2.20;;;11.10;99.90;;;;;;5071462;28;20108;-66
2023/12/27 11:30:48;;;;;;;6.32;2.42;;;11.00;99.90;;;;;;5047829;28;20479;-66
2023/12/27 11:33:19;;;;;;;9.15;3.38;;;10.90;99.90;;;;;;5056859;28;20029;-67
2023/12/27 11:35:46;;;;;;;8.48;2.67;;;11.00;99.90;;;;;;5071423;28;20422;-66
2023/12/27 11:38:18;;;;;;;5.85;2.25;;;11.00;99.90;;;;;;5058168;28;20033;-68
2023/12/27 11:40:44;;;;;;;7.10;2.22;;;11.20;99.90;;;;;;5051977;28;20029;-68
2023/12/27 11:43:10;;;;;;;6.25;2.33;;;11.30;99.90;;;;;;5055063;28;20099;-67
2023/12/27 11:45:58;;;;;;;6.03;2.75;;;11.40;99.90;;;;;;5071535;28;20103;-67
2023/12/27 11:48:25;;;;;;;4.75;2.20;;;11.20;99.90;;;;;;5077702;28;20108;-68
2023/12/27 11:50:51;;;;;;;5.35;2.38;;;10.90;99.90;;;;;;5071686;28;20044;-68
2023/12/27 11:53:18;;;;;;;7.35;2.17;;;11.00;99.90;;;;;;5070363;28;20069;-69
2023/12/27 11:55:46;;;;;;;7.55;2.30;;;11.30;99.90;;;;;;5051439;28;20028;-68
2023/12/27 11:58:14;;;;;;;8.45;2.67;;;11.50;99.90;;;;;;5049561;28;20056;-68
2023/12/27 12:00:40;;;;;;;7.03;2.55;;;11.70;99.90;;;;;;5062260;28;20140;-68
2023/12/27 12:03:19;;;;;;;6.43;2.47;;;12.00;99.90;;;;;;5072426;28;20497;-68
2023/12/27 12:06:14;;;;;;;3.78;2.00;;;12.30;99.90;;;;;;5090837;28;20024;-66
2023/12/27 12:08:45;;;;;;;6.30;2.30;;;12.30;99.90;;;;;;5092016;28;20093;-68
2023/12/27 12:11:14;;;;;;;6.25;2.60;;;12.30;99.90;;;;;;5072608;28;20036;-68
2023/12/27 12:13:40;;;;;;;6.97;2.25;;;12.20;99.90;;;;;;5091225;28;20099;-69
2023/12/27 12:16:07;;;;;;;5.05;2.05;;;12.00;99.90;;;;;;5090653;28;20506;-67
2023/12/27 12:18:34;;;;;;;7.65;2.28;;;11.90;99.90;;;;;;5091484;28;20370;-68
2023/12/27 12:21:00;;;;;;;5.53;2.17;;;11.90;99.90;;;;;;5090598;28;20031;-72
2023/12/27 12:23:32;;;;;;;5.22;1.92;;;11.70;99.90;;;;;;5090334;28;20512;-68
2023/12/27 12:26:02;;;;;;;6.78;2.42;;;11.70;99.90;;;;;;5073085;28;20035;-68
2023/12/27 12:28:29;;;;;;;8.93;3.05;;;11.60;99.90;;;;;;5090180;28;20109;-68
2023/12/27 12:30:56;;;;;;;6.75;2.90;;;11.60;99.90;;;;;;5086942;28;20048;-68
2023/12/27 12:33:22;;;;;;;7.00;2.97;;;11.50;99.90;;;;;;5089836;28;20035;-70
2023/12/27 12:35:49;;;;;;;12.10;3.33;;;11.70;99.90;;;;;;5091082;28;20032;-68
2023/12/27 12:38:15;;;;;;;6.05;2.58;;;11.90;99.90;;;;;;5072092;28;20458;-66
2023/12/27 12:40:40;;;;;;;6.82;2.55;;;12.00;99.90;;;;;;5090999;28;20050;-68
2023/12/27 12:43:07;;;;;;;8.15;2.65;;;12.10;99.90;;;;;;5089734;28;20134;-68